Fairbanks, IN

6:16 PM EDT on September 27, 2016 (GMT -0400)
2 miles SW of Sullivan_IN | | Change Station

Elev 499 ft 39.08 °N, 87.43 °W | Updated 18 minutes ago

Clear
Clear
76.8 °F
Feels Like 78 °F
N
11.9
Wind Variable Wind from West

Today
High -- | Low -- °F
--% Chance of Precip.
Yesterday
High -- | Low -- °F
Precip. -- in
Pressure 29.85 in
Visibility 10.0 miles
Clouds Clear
Heat Index 78 °F
Dew Point 48 °F
Humidity 37%
Rainfall 0.00 in
Snow Depth Not available.
7:42 AM 7:38 PM
Waning Crescent, 9% visible
METAR KRSV 272155Z AUTO 27010G18KT 10SM CLR 24/07 A2985 RMK AO2 T02400073
Pressure 29.85 in
Visibility 10.0 miles
Clouds Clear
Heat Index 78 °F
Dew Point 48 °F
Humidity 37%
Rainfall 0.00 in
Snow Depth Not available.
7:42 AM 7:38 PM
Waning Crescent, 9% visible
METAR KRSV 272155Z AUTO 27010G18KT 10SM CLR 24/07 A2985 RMK AO2 T02400073

10-Day Weather Forecast

Almanac

Astronomy

Sep. 27, 2016 Rise Set
Actual Time
Civil Twilight
Nautical Twilight
Astronomical Twilight
Moon
Length of Visible Light
Length of Day
Tomorrow will be .
, % of the Moon is Illuminated

Today's Extremes

State Highs State Lows

Community

WunderPhotos

Upload Photos

1,942,168 photos uploaded!

WunderBlog® & News

Nearby

Air Quality

  Air Quality AQ Index Pollutant
Not available.

Snow Depth

Station Depth Elevation

Earthquake Activity

City Distance Mag. Time & Date
Minimum magnitude displayed is 2.5.

Coastal Water Temperatures

Place Temperature

Stations

Nearby Weather Stations

Station Location Temp. Windchill Dew Point Humidity Wind Precip. Elev Updated Type
                   

Watches & Warnings

There are currently no watches in effect.